»·PEaware :: N5002T KBUR-KSBA

N5002T :: KBUR-KSBA

FLIGHT INFORMATION

Flight Status: Arrived
Operator: Privately registered:
United States
More flights under this callsign
Pilot: Hunter M. (19355)
Aircraft: CESSNA 172 SKYHAWK
(C172)
More flights by this aircraft type
Origin: KBUR Bob Hope-Burbank
United States
Destination: KSBA Santa Barbara Mun
United States
More flights between these airports :: More routes between these airports
Route: VNY3 FIM RZS
File this flight plan on PilotEdge
Remarks: custom wx
Altitude:
(Current/Filed)
8,000ft
Speed:
(Current/Filed)
118kts
Departed: 29-Nov-18 06:54 PM
Arrived: 29-Nov-18 08:07 PM
Distance/Time
Traveled:
75nm/1:13
Distance/Time
To Go:
Arrived

Flight Plot

Page will automatically refresh every two minutes.

Flight plan parsing failed; only flown route is shown


Map Options




Map Legend


Flown Route
Filed Route
Departure Airport
Arrival Airport
Navaid (VOR, NDB)
Fix

Horizontal Profiles

Position Reports

Time Latitude Longitude Heading Altitude Ground
Speed
29-Nov-18 18:23 34.196002 -118.367410 180 781ft 0kts
29-Nov-18 18:24 34.196002 -118.367410 180 781ft 0kts
29-Nov-18 18:25 34.196002 -118.367410 180 781ft 0kts
29-Nov-18 18:26 34.196002 -118.367410 180 781ft 0kts
29-Nov-18 18:27 34.196002 -118.367410 180 781ft 0kts
29-Nov-18 18:28 34.196002 -118.367410 180 781ft 0kts
29-Nov-18 18:29 34.196002 -118.367410 180 781ft 0kts
29-Nov-18 18:30 34.196002 -118.367410 180 781ft 0kts
29-Nov-18 18:31 34.196002 -118.367410 180 781ft 0kts
29-Nov-18 18:32 34.196002 -118.367410 180 781ft 0kts
29-Nov-18 18:33 34.196002 -118.367410 180 781ft 0kts
29-Nov-18 18:34 34.196002 -118.367410 180 781ft 0kts
29-Nov-18 18:35 34.196002 -118.367410 180 781ft 0kts
29-Nov-18 18:36 34.196002 -118.367410 180 781ft 0kts
29-Nov-18 18:37 34.196002 -118.367410 180 781ft 0kts
29-Nov-18 18:38 34.196002 -118.367410 180 781ft 0kts
29-Nov-18 18:39 34.196002 -118.367410 180 781ft 0kts
29-Nov-18 18:40 34.196002 -118.367410 180 781ft 0kts
29-Nov-18 18:41 34.196002 -118.367410 180 781ft 0kts
29-Nov-18 18:42 34.196216 -118.366268 47 781ft 6kts
29-Nov-18 18:43 34.196721 -118.366474 278 781ft 7kts
29-Nov-18 18:44 34.196732 -118.367350 273 781ft 0kts
29-Nov-18 18:45 34.196747 -118.367976 270 781ft 0kts
29-Nov-18 18:46 34.196780 -118.367190 83 781ft 9kts
29-Nov-18 18:47 34.195959 -118.366525 256 781ft 0kts
29-Nov-18 18:48 34.195959 -118.366526 256 781ft 0kts
29-Nov-18 18:49 34.195959 -118.366527 256 781ft 0kts
29-Nov-18 18:50 34.195959 -118.366527 256 781ft 0kts
29-Nov-18 18:51 34.195959 -118.366528 257 781ft 0kts
29-Nov-18 18:52 34.196489 -118.366175 2 781ft 7kts
29-Nov-18 18:53 34.196913 -118.368952 337 781ft 1kts
29-Nov-18 18:54 34.196915 -118.368953 337 781ft 0kts
29-Nov-18 18:55 34.196916 -118.368953 337 781ft 0kts
29-Nov-18 18:56 34.197877 -118.368800 66 781ft 8kts
29-Nov-18 18:57 34.197371 -118.354061 87 981ft 82kts
29-Nov-18 18:58 34.183410 -118.347102 221 1763ft 80kts
29-Nov-18 18:59 34.166588 -118.367572 221 2412ft 92kts
29-Nov-18 19:00 34.163006 -118.387982 328 3120ft 75kts
29-Nov-18 19:01 34.179970 -118.401966 328 3797ft 72kts
29-Nov-18 19:02 34.193644 -118.418518 298 4503ft 67kts
29-Nov-18 19:03 34.201907 -118.438977 300 5074ft 72kts
29-Nov-18 19:04 34.211331 -118.461891 297 5533ft 78kts
29-Nov-18 19:05 34.220912 -118.485661 295 5947ft 78kts
29-Nov-18 19:06 34.223353 -118.507005 271 6284ft 77kts
29-Nov-18 19:07 34.223293 -118.536752 269 6741ft 74kts
29-Nov-18 19:08 34.223250 -118.557250 269 7063ft 72kts
29-Nov-18 19:09 34.223210 -118.585155 269 7515ft 70kts
29-Nov-18 19:10 34.223199 -118.604729 269 7844ft 69kts
29-Nov-18 19:11 34.223238 -118.633915 269 8000ft 78kts
29-Nov-18 19:12 34.223248 -118.660141 269 8003ft 79kts
29-Nov-18 19:13 34.223218 -118.682746 269 8002ft 82kts
29-Nov-18 19:14 34.223189 -118.715236 269 8000ft 83kts
29-Nov-18 19:15 34.234252 -118.734190 307 8002ft 88kts
29-Nov-18 19:16 34.251753 -118.755100 306 7999ft 88kts
29-Nov-18 19:17 34.269154 -118.775994 306 8000ft 88kts
29-Nov-18 19:18 34.286625 -118.796989 306 8000ft 88kts
29-Nov-18 19:19 34.304035 -118.817946 306 8000ft 88kts
29-Nov-18 19:20 34.321438 -118.838905 306 8000ft 88kts
29-Nov-18 19:21 34.338877 -118.859914 306 8000ft 88kts
29-Nov-18 19:22 34.356115 -118.880988 298 7998ft 86kts
29-Nov-18 19:23 34.361392 -118.908292 279 8000ft 83kts
29-Nov-18 19:24 34.366235 -118.935935 279 8000ft 83kts
29-Nov-18 19:25 34.371044 -118.963479 279 8000ft 83kts
29-Nov-18 19:26 34.375791 -118.990716 279 8000ft 83kts
29-Nov-18 19:27 34.380594 -119.018238 279 8000ft 83kts
29-Nov-18 19:28 34.385408 -119.045850 279 8000ft 83kts
29-Nov-18 19:29 34.390222 -119.073495 279 8000ft 83kts
29-Nov-18 19:30 34.395017 -119.101067 279 8000ft 83kts
29-Nov-18 19:31 34.399817 -119.128705 279 8000ft 83kts
29-Nov-18 19:32 34.404606 -119.156321 279 8000ft 83kts
29-Nov-18 19:33 34.409383 -119.183908 279 8000ft 83kts
29-Nov-18 19:34 34.410618 -119.212046 262 7859ft 91kts
29-Nov-18 19:35 34.406299 -119.243645 262 7206ft 97kts
29-Nov-18 19:36 34.401984 -119.274712 262 6514ft 89kts
29-Nov-18 19:37 34.395982 -119.305316 261 5834ft 97kts
29-Nov-18 19:38 34.390381 -119.337446 261 5186ft 93kts
29-Nov-18 19:39 34.384802 -119.368275 261 4506ft 95kts
29-Nov-18 19:40 34.380612 -119.401467 270 3991ft 97kts
29-Nov-18 19:41 34.378694 -119.431981 270 3994ft 87kts
29-Nov-18 19:42 34.376787 -119.461544 270 4003ft 89kts
29-Nov-18 19:43 34.375017 -119.492838 270 3834ft 100kts
29-Nov-18 19:44 34.376785 -119.527550 280 3285ft 103kts
29-Nov-18 19:45 34.379504 -119.561534 279 2679ft 97kts
29-Nov-18 19:46 34.381933 -119.593850 279 2082ft 95kts
29-Nov-18 19:47 34.383906 -119.623262 279 1986ft 80kts
29-Nov-18 19:48 34.385539 -119.649914 279 2150ft 94kts
29-Nov-18 19:49 34.387918 -119.682949 279 1766ft 94kts
29-Nov-18 19:50 34.389732 -119.712388 279 1590ft 81kts
29-Nov-18 19:51 34.398406 -119.736399 301 1602ft 78kts
29-Nov-18 19:52 34.408385 -119.760003 300 1600ft 78kts
29-Nov-18 19:53 34.400612 -119.786686 251 1614ft 91kts
29-Nov-18 19:54 34.392256 -119.816054 261 1601ft 91kts
29-Nov-18 19:55 34.386416 -119.847553 261 1896ft 100kts
29-Nov-18 19:56 34.380328 -119.880572 261 2502ft 100kts
29-Nov-18 19:57 34.374192 -119.913528 261 3011ft 103kts
29-Nov-18 19:58 34.371268 -119.948166 271 3000ft 103kts
29-Nov-18 19:59 34.372506 -119.981720 302 2913ft 99kts
29-Nov-18 20:00 34.386118 -120.012548 301 2257ft 106kts
29-Nov-18 20:01 34.400312 -120.040029 0 1968ft 83kts
29-Nov-18 20:02 34.414098 -120.019398 50 2002ft 81kts
29-Nov-18 20:03 34.424842 -119.995845 92 2005ft 84kts
29-Nov-18 20:04 34.424632 -119.966844 82 1918ft 91kts
29-Nov-18 20:05 34.425721 -119.938355 82 1421ft 78kts
29-Nov-18 20:06 34.426241 -119.913337 82 987ft 70kts
29-Nov-18 20:07 34.426555 -119.890837 80 649ft 62kts
29-Nov-18 20:08 34.426881 -119.870752 81 338ft 55kts
29-Nov-18 20:09 34.427507 -119.852027 80 66ft 55kts
29-Nov-18 20:10 34.428498 -119.845544 43 13ft 0kts
29-Nov-18 20:11 34.428995 -119.845197 331 13ft 4kts

Navigation Log

Ident Type
Flight plan parsing failed, navigation log unavailable